Qinhuangdao, China
Current Conditions -  °F | °C
As of 11:30 AM on Sunday 25 Jan 2015 (Local Time) from ZYTL Reporting Station
Haze Haze  
Wind Chill: 27°   Ceiling: Unl
Heat Index: 34°   Visibility: 1.8mi
Dew Point: 32°   Wind: 9mph
Humidity: 93%   Direction: 100°E
Pressure: 30.24"   Gusts: NA
Location:  39.95°N, 119.59°E
Report Text: ZYTL 250330Z 10004MPS 3000 BR SCT040 01/00 Q1024 NOSIG
Loading
Personal Weather Stations






























Interactive Weather Map New forecast layout! Learn more

10-Day Weather Forecast

Advertisements
Track Severe Weather on mobile